Time;durP1;ratioP1;P1;durP2;ratioP2;P2;SDS_P1;SDS_P2;PMS_P1;PMS_P2;Temp;Humidity;BMP_temperature;BMP_pressure;BME280_temperature;BME280_humidity;BME280_pressure;Samples;Min_cycle;Max_cycle;Signal;HPM_P1;HPM_P2
2023/09/21 00:00:29;;;;;;;4.35;2.60;;;;;;;;;;5048210;28;20059;-69
2023/09/21 00:02:56;;;;;;;3.35;2.42;;;;;;;;;;5048686;28;20048;-69
2023/09/21 00:05:23;;;;;;;4.43;2.70;;;;;;;;;;5047826;28;20041;-69
2023/09/21 00:07:50;;;;;;;6.45;2.50;;;;;;;;;;5051282;28;20295;-69
2023/09/21 00:10:18;;;;;;;3.88;2.65;;;;;;;;;;5045673;28;20052;-69
2023/09/21 00:12:46;;;;;;;3.92;2.70;;;;;;;;;;5045472;28;20052;-69
2023/09/21 00:15:21;;;;;;;3.80;2.60;;;;;;;;;;5047978;28;20048;-69
2023/09/21 00:17:51;;;;;;;3.00;2.42;;;;;;;;;;5043166;28;20056;-69
2023/09/21 00:20:30;;;;;;;4.15;2.65;;;;;;;;;;5042670;28;20480;-69
2023/09/21 00:22:56;;;;;;;3.95;2.78;;;;;;;;;;5048159;28;20127;-69
2023/09/21 00:25:23;;;;;;;3.78;2.60;;;;;;;;;;5045216;28;20507;-69
2023/09/21 00:27:52;;;;;;;5.05;2.40;;;;;;;;;;5048554;28;20053;-69
2023/09/21 00:30:18;;;;;;;5.85;2.90;;;;;;;;;;5048588;28;20055;-69
2023/09/21 00:32:46;;;;;;;3.97;2.78;;;;;;;;;;5044576;28;20059;-69
2023/09/21 00:35:15;;;;;;;4.40;2.65;;;;;;;;;;5047175;28;20044;-69
2023/09/21 00:37:42;;;;;;;3.22;2.42;;;;;;;;;;5048028;28;20443;-69
2023/09/21 00:40:21;;;;;;;4.25;2.60;;;;;;;;;;5045373;28;20075;-69
2023/09/21 00:42:48;;;;;;;4.45;2.78;;;;;;;;;;5046466;28;20045;-69
2023/09/21 00:45:18;;;;;;;3.83;2.70;;;;;;;;;;5048092;28;20045;-69
2023/09/21 00:47:49;;;;;;;4.10;2.65;;;;;;;;;;5043919;28;20048;-69
2023/09/21 00:50:18;;;;;;;5.85;3.20;;;;;;;;;;5043835;28;20132;-69
2023/09/21 00:52:46;;;;;;;4.95;2.70;;;;;;;;;;5041784;28;20049;-69
2023/09/21 00:55:14;;;;;;;5.63;2.65;;;;;;;;;;5043212;28;20288;-69
2023/09/21 00:57:42;;;;;;;3.22;2.58;;;;;;;;;;5046667;28;20053;-69
2023/09/21 01:00:12;;;;;;;5.93;2.58;;;;;;;;;;5044969;28;20059;-69
2023/09/21 01:02:42;;;;;;;4.13;2.72;;;;;;;;;;5041583;28;20049;-69
2023/09/21 01:05:17;;;;;;;3.28;2.47;;;;;;;;;;5047040;28;20052;-69
2023/09/21 01:07:46;;;;;;;5.50;2.88;;;;;;;;;;5046515;28;20056;-69
2023/09/21 01:10:13;;;;;;;4.38;2.85;;;;;;;;;;5044056;28;20052;-69
2023/09/21 01:12:44;;;;;;;4.93;2.80;;;;;;;;;;5050323;28;20052;-69
2023/09/21 01:15:11;;;;;;;5.22;3.30;;;;;;;;;;5043673;28;20059;-69
2023/09/21 01:17:40;;;;;;;3.70;2.70;;;;;;;;;;5048375;28;20103;-69
2023/09/21 01:20:22;;;;;;;6.72;2.97;;;;;;;;;;5045571;28;20136;-69
2023/09/21 01:22:58;;;;;;;5.30;3.20;;;;;;;;;;5044723;28;20060;-69
2023/09/21 01:25:27;;;;;;;3.97;2.60;;;;;;;;;;5050422;28;20064;-69
2023/09/21 01:27:54;;;;;;;7.25;3.20;;;;;;;;;;5051651;28;20045;-69
2023/09/21 01:30:21;;;;;;;6.03;3.25;;;;;;;;;;5049297;28;20047;-69
2023/09/21 01:32:48;;;;;;;7.00;2.90;;;;;;;;;;5048530;28;20127;-69
2023/09/21 01:35:16;;;;;;;3.28;2.55;;;;;;;;;;5048030;28;20049;-69
2023/09/21 01:37:43;;;;;;;4.80;2.42;;;;;;;;;;5051489;28;20048;-69
2023/09/21 01:40:15;;;;;;;4.00;2.55;;;;;;;;;;5045819;28;20058;-69
2023/09/21 01:42:44;;;;;;;5.32;2.83;;;;;;;;;;5046554;28;20060;-69
2023/09/21 01:45:14;;;;;;;4.20;2.55;;;;;;;;;;5048188;28;20053;-69
2023/09/21 01:47:41;;;;;;;4.50;2.90;;;;;;;;;;5052139;28;20049;-69
2023/09/21 01:50:11;;;;;;;7.20;2.90;;;;;;;;;;5048846;28;20045;-69
2023/09/21 01:52:38;;;;;;;4.15;2.90;;;;;;;;;;5045222;28;20067;-69
2023/09/21 01:55:10;;;;;;;6.10;3.08;;;;;;;;;;5045723;28;20045;-69
2023/09/21 01:57:37;;;;;;;4.28;3.00;;;;;;;;;;5045755;28;20072;-69
2023/09/21 02:00:12;;;;;;;6.70;3.30;;;;;;;;;;5045058;28;20045;-69
2023/09/21 02:02:40;;;;;;;5.65;2.97;;;;;;;;;;5050399;28;20091;-69
2023/09/21 02:05:10;;;;;;;5.28;3.00;;;;;;;;;;5049952;28;20053;-69
2023/09/21 02:07:37;;;;;;;5.45;3.10;;;;;;;;;;5048068;28;20501;-69
2023/09/21 02:10:09;;;;;;;3.95;2.92;;;;;;;;;;5045565;28;20492;-69
2023/09/21 02:12:36;;;;;;;;;;;;;;;;;;5050691;28;20045;-69
2023/09/21 02:15:03;;;;;;;4.88;2.63;;;;;;;;;;5049793;28;19921;-69
2023/09/21 02:17:31;;;;;;;4.88;3.38;;;;;;;;;;5050567;28;20087;-69
2023/09/21 02:19:59;;;;;;;4.25;3.25;;;;;;;;;;5048260;28;20385;-69
2023/09/21 02:22:25;;;;;;;6.13;2.97;;;;;;;;;;5045679;28;20046;-69
2023/09/21 02:24:53;;;;;;;4.50;3.10;;;;;;;;;;5044191;28;20045;-69
2023/09/21 02:27:21;;;;;;;4.45;3.22;;;;;;;;;;5047440;28;20056;-69
2023/09/21 02:29:47;;;;;;;4.88;3.03;;;;;;;;;;5050554;28;20073;-69
2023/09/21 02:32:14;;;;;;;4.93;2.72;;;;;;;;;;5049157;28;20488;-69
2023/09/21 02:34:42;;;;;;;5.55;2.95;;;;;;;;;;5045115;28;20396;-69
2023/09/21 02:37:09;;;;;;;4.63;2.72;;;;;;;;;;5049189;28;20048;-69
2023/09/21 02:39:36;;;;;;;3.75;2.60;;;;;;;;;;5049795;28;20132;-69
2023/09/21 02:42:04;;;;;;;4.03;2.45;;;;;;;;;;5046957;28;20049;-69
2023/09/21 02:44:30;;;;;;;3.88;2.90;;;;;;;;;;5047290;28;20048;-69
2023/09/21 02:46:57;;;;;;;6.90;3.13;;;;;;;;;;5046191;28;20045;-69
2023/09/21 02:49:23;;;;;;;5.13;2.78;;;;;;;;;;5043520;28;20083;-69
2023/09/21 02:51:52;;;;;;;7.10;3.20;;;;;;;;;;5045911;28;20131;-69
2023/09/21 02:54:19;;;;;;;5.65;3.15;;;;;;;;;;5049072;28;20049;-69
2023/09/21 02:56:47;;;;;;;4.03;3.03;;;;;;;;;;5044537;28;20444;-69
2023/09/21 02:59:14;;;;;;;4.80;2.80;;;;;;;;;;5045813;28;20041;-69
2023/09/21 03:01:41;;;;;;;4.82;2.88;;;;;;;;;;5049870;28;20123;-69
2023/09/21 03:04:08;;;;;;;6.28;3.30;;;;;;;;;;5051728;28;20133;-69
2023/09/21 03:06:35;;;;;;;5.47;3.40;;;;;;;;;;5049793;28;20049;-69
2023/09/21 03:09:05;;;;;;;7.63;3.00;;;;;;;;;;5045982;28;20056;-69
2023/09/21 03:11:31;;;;;;;3.47;3.15;;;;;;;;;;5043365;28;20049;-69
2023/09/21 03:14:00;;;;;;;4.90;2.60;;;;;;;;;;5045303;28;20051;-69
2023/09/21 03:16:28;;;;;;;6.72;3.30;;;;;;;;;;5046544;28;20520;-68
2023/09/21 03:18:54;;;;;;;6.53;3.38;;;;;;;;;;5049346;28;20045;-69
2023/09/21 03:21:21;;;;;;;5.10;2.90;;;;;;;;;;5048757;28;20067;-69
2023/09/21 03:23:48;;;;;;;5.65;3.00;;;;;;;;;;5051386;28;20420;-69
2023/09/21 03:26:18;;;;;;;5.13;2.67;;;;;;;;;;5045464;28;20045;-69
2023/09/21 03:28:47;;;;;;;3.95;2.90;;;;;;;;;;5046537;28;20401;-69
2023/09/21 03:31:16;;;;;;;9.43;2.80;;;;;;;;;;5048610;28;20045;-68
2023/09/21 03:33:43;;;;;;;5.57;2.90;;;;;;;;;;5045668;28;20057;-68
2023/09/21 03:36:13;;;;;;;5.75;2.83;;;;;;;;;;5051402;28;20057;-68
2023/09/21 03:38:40;;;;;;;4.32;2.90;;;;;;;;;;5046704;28;20052;-68
2023/09/21 03:41:06;;;;;;;4.40;2.65;;;;;;;;;;5048684;28;20048;-68
2023/09/21 03:43:36;;;;;;;4.53;2.70;;;;;;;;;;5048851;28;20083;-68
2023/09/21 03:46:03;;;;;;;4.68;2.78;;;;;;;;;;5042160;28;20132;-68
2023/09/21 03:48:35;;;;;;;5.05;2.67;;;;;;;;;;5045248;28;20080;-68
2023/09/21 03:51:04;;;;;;;5.47;2.80;;;;;;;;;;5047109;28;20135;-68
2023/09/21 03:53:33;;;;;;;6.30;2.70;;;;;;;;;;5047921;28;20053;-68
2023/09/21 03:56:01;;;;;;;6.55;2.90;;;;;;;;;;5043328;28;20045;-68
2023/09/21 03:58:28;;;;;;;5.20;2.95;;;;;;;;;;5051586;28;20510;-68
2023/09/21 04:00:56;;;;;;;5.05;2.92;;;;;;;;;;5048800;28;20299;-68
2023/09/21 04:03:26;;;;;;;3.85;2.60;;;;;;;;;;5048003;28;20539;-68
2023/09/21 04:05:53;;;;;;;5.78;2.50;;;;;;;;;;5044998;28;20124;-68
2023/09/21 04:08:19;;;;;;;11.30;3.53;;;;;;;;;;5047824;28;20045;-68
2023/09/21 04:10:46;;;;;;;5.13;2.90;;;;;;;;;;5043754;28;20065;-68
2023/09/21 04:13:15;;;;;;;5.80;2.70;;;;;;;;;;5045207;28;20048;-68
2023/09/21 04:15:41;;;;;;;2.92;2.35;;;;;;;;;;5045884;28;20136;-68
2023/09/21 04:18:09;;;;;;;4.18;2.55;;;;;;;;;;5048547;28;20049;-68
2023/09/21 04:20:40;;;;;;;5.47;2.85;;;;;;;;;;5048375;28;20068;-68
2023/09/21 04:23:07;;;;;;;3.80;2.55;;;;;;;;;;5045299;28;20065;-68
2023/09/21 04:25:33;;;;;;;4.78;2.70;;;;;;;;;;5040011;28;20432;-68
2023/09/21 04:28:00;;;;;;;6.90;3.08;;;;;;;;;;5042312;28;20136;-68
2023/09/21 04:30:26;;;;;;;8.00;3.17;;;;;;;;;;5047739;28;20046;-68
2023/09/21 04:32:54;;;;;;;6.85;2.78;;;;;;;;;;5046392;28;20049;-68
2023/09/21 04:35:22;;;;;;;7.15;2.90;;;;;;;;;;5040883;28;20051;-68
2023/09/21 04:37:51;;;;;;;4.25;2.95;;;;;;;;;;5045187;28;20056;-68
2023/09/21 04:40:18;;;;;;;7.45;2.85;;;;;;;;;;5038697;28;20054;-68
2023/09/21 04:42:46;;;;;;;6.45;3.60;;;;;;;;;;5045760;28;20102;-68
2023/09/21 04:45:14;;;;;;;5.35;2.80;;;;;;;;;;5045173;28;20095;-68
2023/09/21 04:47:42;;;;;;;6.15;2.70;;;;;;;;;;5041842;28;20045;-68
2023/09/21 04:50:11;;;;;;;4.45;2.58;;;;;;;;;;5045416;28;20417;-68
2023/09/21 04:52:39;;;;;;;6.70;2.75;;;;;;;;;;5043092;28;20432;-68
2023/09/21 04:55:08;;;;;;;6.45;2.97;;;;;;;;;;5044770;28;20045;-68
2023/09/21 04:57:35;;;;;;;8.90;3.20;;;;;;;;;;5041842;28;20172;-68
2023/09/21 05:00:04;;;;;;;6.20;3.25;;;;;;;;;;5043415;28;20420;-68
2023/09/21 05:02:31;;;;;;;7.82;3.33;;;;;;;;;;5049337;28;20044;-68
2023/09/21 05:04:59;;;;;;;5.63;3.60;;;;;;;;;;5048531;28;20048;-67
2023/09/21 05:07:27;;;;;;;5.18;3.40;;;;;;;;;;5049751;28;20467;-68
2023/09/21 05:09:55;;;;;;;7.00;3.67;;;;;;;;;;5051126;28;20056;-68
2023/09/21 05:12:21;;;;;;;7.80;4.03;;;;;;;;;;5048371;28;20414;-68
2023/09/21 05:14:48;;;;;;;4.85;3.70;;;;;;;;;;5048544;28;20067;-68
2023/09/21 05:17:15;;;;;;;5.70;3.85;;;;;;;;;;5051631;28;20057;-68
2023/09/21 05:19:42;;;;;;;6.95;3.53;;;;;;;;;;5045856;28;20145;-68
2023/09/21 05:22:09;;;;;;;5.00;3.88;;;;;;;;;;5045955;28;20512;-68
2023/09/21 05:24:36;;;;;;;5.95;3.58;;;;;;;;;;5048450;28;20048;-68
2023/09/21 05:27:04;;;;;;;7.22;3.97;;;;;;;;;;5046082;28;20045;-68
2023/09/21 05:29:31;;;;;;;5.65;3.78;;;;;;;;;;5054394;28;20048;-68
2023/09/21 05:31:58;;;;;;;12.68;3.88;;;;;;;;;;5050678;28;20049;-68
2023/09/21 05:34:25;;;;;;;6.45;4.00;;;;;;;;;;5046257;28;20049;-68
2023/09/21 05:36:53;;;;;;;7.53;3.75;;;;;;;;;;5046063;28;20492;-68
2023/09/21 05:39:20;;;;;;;11.40;4.88;;;;;;;;;;5047242;28;20131;-69
2023/09/21 05:41:47;;;;;;;6.40;3.65;;;;;;;;;;5052593;28;20049;-68
2023/09/21 05:44:15;;;;;;;7.43;4.43;;;;;;;;;;5050147;28;20045;-68
2023/09/21 05:46:42;;;;;;;4.18;3.40;;;;;;;;;;5052115;28;20052;-68
2023/09/21 05:49:09;;;;;;;8.45;3.63;;;;;;;;;;5053925;28;20045;-69
2023/09/21 05:51:36;;;;;;;6.05;3.88;;;;;;;;;;5045660;28;20447;-68
2023/09/21 05:54:03;;;;;;;6.40;3.40;;;;;;;;;;5049953;28;20072;-68
2023/09/21 05:56:30;;;;;;;6.15;3.95;;;;;;;;;;5045800;28;20501;-68
2023/09/21 05:58:57;;;;;;;11.18;4.03;;;;;;;;;;5044155;28;20041;-68
2023/09/21 06:01:25;;;;;;;9.20;3.70;;;;;;;;;;5047309;28;20051;-68
2023/09/21 06:03:52;;;;;;;13.13;4.05;;;;;;;;;;5052039;28;20049;-69
2023/09/21 06:06:19;;;;;;;5.25;3.38;;;;;;;;;;5047580;28;20067;-68
2023/09/21 06:08:46;;;;;;;15.73;3.70;;;;;;;;;;5046184;28;20048;-69
2023/09/21 06:11:13;;;;;;;10.93;3.70;;;;;;;;;;5049946;28;20045;-69
2023/09/21 06:13:40;;;;;;;11.10;3.78;;;;;;;;;;5047886;28;20064;-69
2023/09/21 06:16:08;;;;;;;6.78;3.40;;;;;;;;;;5050430;28;20055;-68
2023/09/21 06:18:36;;;;;;;5.78;3.17;;;;;;;;;;5050943;28;20045;-69
2023/09/21 06:21:04;;;;;;;4.65;3.25;;;;;;;;;;5045976;28;20041;-68
2023/09/21 06:23:30;;;;;;;4.82;2.85;;;;;;;;;;5048889;28;20521;-69
2023/09/21 06:25:57;;;;;;;6.82;3.33;;;;;;;;;;5048142;28;20041;-68
2023/09/21 06:28:24;;;;;;;7.07;3.08;;;;;;;;;;5050858;28;20047;-68
2023/09/21 06:30:51;;;;;;;5.72;3.28;;;;;;;;;;5047398;28;20051;-68
2023/09/21 06:33:18;;;;;;;8.13;3.65;;;;;;;;;;5050833;28;20053;-69
2023/09/21 06:35:47;;;;;;;8.27;3.22;;;;;;;;;;5049614;28;20045;-68
2023/09/21 06:38:13;;;;;;;10.52;3.30;;;;;;;;;;5043785;28;20045;-68
2023/09/21 06:40:40;;;;;;;10.68;3.25;;;;;;;;;;5047541;28;20072;-68
2023/09/21 06:43:07;;;;;;;9.40;3.47;;;;;;;;;;5042151;28;20055;-69
2023/09/21 06:45:34;;;;;;;4.95;2.72;;;;;;;;;;5048782;28;20052;-69
2023/09/21 06:48:01;;;;;;;4.38;2.58;;;;;;;;;;5045846;28;20206;-68
2023/09/21 06:50:28;;;;;;;4.30;2.63;;;;;;;;;;5043565;28;20056;-69
2023/09/21 06:52:56;;;;;;;6.63;2.65;;;;;;;;;;5048446;28;20044;-73
2023/09/21 06:55:23;;;;;;;7.30;3.08;;;;;;;;;;5046028;28;20049;-73
2023/09/21 06:57:50;;;;;;;5.18;3.15;;;;;;;;;;5044474;28;20041;-74
2023/09/21 07:00:17;;;;;;;5.10;2.70;;;;;;;;;;5037642;28;20068;-72
2023/09/21 07:02:44;;;;;;;5.22;2.75;;;;;;;;;;5044643;28;20071;-73
2023/09/21 07:05:12;;;;;;;5.03;3.03;;;;;;;;;;5046399;28;20525;-73
2023/09/21 07:07:41;;;;;;;6.15;2.65;;;;;;;;;;5046730;28;20057;-73
2023/09/21 07:10:11;;;;;;;3.67;2.63;;;;;;;;;;5047300;28;20045;-73
2023/09/21 07:12:39;;;;;;;3.55;2.67;;;;;;;;;;5043069;28;20049;-71
2023/09/21 07:15:07;;;;;;;7.45;2.80;;;;;;;;;;5046170;28;20045;-71
2023/09/21 07:17:34;;;;;;;4.85;2.80;;;;;;;;;;5048173;28;20103;-70
2023/09/21 07:20:01;;;;;;;4.38;2.90;;;;;;;;;;5044454;28;20045;-72
2023/09/21 07:22:28;;;;;;;6.65;3.63;;;;;;;;;;5041052;28;20442;-71
2023/09/21 07:24:55;;;;;;;7.90;3.13;;;;;;;;;;5050708;28;20075;-71
2023/09/21 07:27:23;;;;;;;6.72;2.80;;;;;;;;;;5047491;28;20041;-70
2023/09/21 07:29:50;;;;;;;3.22;2.20;;;;;;;;;;5050623;28;20174;-70
2023/09/21 07:32:17;;;;;;;5.05;2.47;;;;;;;;;;5049453;28;20475;-71
2023/09/21 07:34:44;;;;;;;6.70;2.08;;;;;;;;;;5048392;28;20044;-70
2023/09/21 07:37:12;;;;;;;4.60;2.08;;;;;;;;;;5042369;28;20050;-73
2023/09/21 07:39:38;;;;;;;3.65;2.00;;;;;;;;;;5037949;28;20050;-73
2023/09/21 07:42:06;;;;;;;2.10;1.83;;;;;;;;;;5043355;28;20506;-72
2023/09/21 07:44:34;;;;;;;2.65;1.60;;;;;;;;;;5045195;28;20053;-72
2023/09/21 07:47:00;;;;;;;3.95;1.90;;;;;;;;;;5048185;28;20045;-71
2023/09/21 07:49:27;;;;;;;4.85;1.90;;;;;;;;;;5052305;28;20128;-70
2023/09/21 07:51:55;;;;;;;2.65;1.60;;;;;;;;;;5050545;28;20037;-71
2023/09/21 07:54:21;;;;;;;4.03;1.50;;;;;;;;;;5042091;28;20049;-71
2023/09/21 07:56:48;;;;;;;5.03;2.33;;;;;;;;;;5046713;28;20051;-71
2023/09/21 07:59:15;;;;;;;3.80;1.60;;;;;;;;;;5046966;28;20041;-71
2023/09/21 08:01:44;;;;;;;4.32;2.90;;;;;;;;;;5046694;28;20132;-71
2023/09/21 08:04:11;;;;;;;3.40;2.00;;;;;;;;;;5041398;28;20057;-72
2023/09/21 08:06:37;;;;;;;4.40;1.80;;;;;;;;;;5041427;28;20051;-71
2023/09/21 08:09:04;;;;;;;3.08;1.67;;;;;;;;;;5039579;28;20478;-71
2023/09/21 08:11:32;;;;;;;1.92;1.58;;;;;;;;;;5044881;28;20135;-72
2023/09/21 08:13:59;;;;;;;3.33;1.42;;;;;;;;;;5043947;28;20052;-71
2023/09/21 08:16:27;;;;;;;3.85;1.40;;;;;;;;;;5038990;28;20132;-71
2023/09/21 08:18:55;;;;;;;2.00;1.50;;;;;;;;;;5044667;28;20056;-71
2023/09/21 08:21:22;;;;;;;3.60;1.52;;;;;;;;;;5046773;28;20049;-70
2023/09/21 08:23:48;;;;;;;6.13;1.83;;;;;;;;;;5044280;28;20045;-70
2023/09/21 08:26:15;;;;;;;2.17;1.40;;;;;;;;;;5047851;28;20132;-69
2023/09/21 08:28:41;;;;;;;2.65;1.60;;;;;;;;;;5044164;28;20050;-73
2023/09/21 08:31:09;;;;;;;1.92;1.38;;;;;;;;;;5042923;28;20484;-72
2023/09/21 08:33:35;;;;;;;4.90;1.52;;;;;;;;;;5043237;28;20137;-73
2023/09/21 08:36:05;;;;;;;2.85;1.60;;;;;;;;;;5048252;28;20135;-70
2023/09/21 08:38:31;;;;;;;2.83;1.30;;;;;;;;;;5045417;28;20048;-70
2023/09/21 08:41:00;;;;;;;4.18;1.95;;;;;;;;;;5040172;28;20057;-70
2023/09/21 08:43:27;;;;;;;3.50;1.55;;;;;;;;;;5045871;28;20071;-67
2023/09/21 08:45:55;;;;;;;4.57;1.70;;;;;;;;;;5049311;28;20053;-67
2023/09/21 08:48:23;;;;;;;2.92;1.50;;;;;;;;;;5049232;28;20132;-67
2023/09/21 08:50:51;;;;;;;2.17;1.50;;;;;;;;;;5039902;28;20056;-67
2023/09/21 08:53:21;;;;;;;2.35;1.55;;;;;;;;;;5044654;28;20045;-68
2023/09/21 08:55:49;;;;;;;3.97;1.67;;;;;;;;;;5043932;28;20476;-67
2023/09/21 08:58:19;;;;;;;3.95;1.48;;;;;;;;;;5046955;28;20071;-67
2023/09/21 09:00:47;;;;;;;3.80;1.73;;;;;;;;;;5045880;28;20041;-66
2023/09/21 09:03:14;;;;;;;3.50;1.95;;;;;;;;;;5042376;28;20076;-66
2023/09/21 09:05:41;;;;;;;2.15;1.52;;;;;;;;;;5038149;28;20041;-66
2023/09/21 09:08:07;;;;;;;4.43;2.00;;;;;;;;;;5048421;28;20060;-68
2023/09/21 09:10:40;;;;;;;3.03;1.60;;;;;;;;;;5050360;28;20424;-67
2023/09/21 09:13:07;;;;;;;6.65;2.33;;;;;;;;;;5044400;28;20049;-68
2023/09/21 09:15:35;;;;;;;4.25;1.83;;;;;;;;;;5041151;28;20053;-68
2023/09/21 09:18:06;;;;;;;4.07;1.90;;;;;;;;;;5044816;28;20049;-68
2023/09/21 09:20:33;;;;;;;6.37;1.80;;;;;;;;;;5047545;28;20055;-68
2023/09/21 09:23:01;;;;;;;3.88;1.20;;;;;;;;;;5047533;28;20041;-68
2023/09/21 09:25:28;;;;;;;3.63;1.50;;;;;;;;;;5041984;28;20046;-67
2023/09/21 09:27:56;;;;;;;2.55;1.83;;;;;;;;;;5040986;28;20049;-68
2023/09/21 09:30:25;;;;;;;1.95;1.15;;;;;;;;;;5040235;28;20496;-68
2023/09/21 09:32:54;;;;;;;3.30;1.40;;;;;;;;;;5046855;28;20045;-68
2023/09/21 09:35:21;;;;;;;5.22;1.52;;;;;;;;;;5050110;28;20393;-68
2023/09/21 09:37:48;;;;;;;4.22;1.60;;;;;;;;;;5047766;28;20045;-68
2023/09/21 09:40:18;;;;;;;2.13;1.20;;;;;;;;;;5044253;28;20045;-68
2023/09/21 09:42:46;;;;;;;5.57;1.60;;;;;;;;;;5043049;28;20045;-68
2023/09/21 09:45:18;;;;;;;4.38;1.80;;;;;;;;;;5047131;28;20071;-68
2023/09/21 09:47:50;;;;;;;;;;;;;;;;;;5052869;28;20103;-68
2023/09/21 09:50:21;;;;;;;2.50;1.30;;;;;;;;;;5042259;28;19928;-67
2023/09/21 09:52:52;;;;;;;3.33;1.50;;;;;;;;;;5050029;28;20091;-68
2023/09/21 09:55:22;;;;;;;4.47;1.35;;;;;;;;;;5044579;28;20065;-68
2023/09/21 09:57:53;;;;;;;3.88;1.50;;;;;;;;;;5046505;28;20427;-68
2023/09/21 10:00:22;;;;;;;4.65;1.50;;;;;;;;;;5045279;28;20054;-68
2023/09/21 10:02:50;;;;;;;4.00;1.73;;;;;;;;;;5051063;28;20432;-68
2023/09/21 10:05:20;;;;;;;2.75;1.58;;;;;;;;;;5041125;28;20052;-68
2023/09/21 10:07:51;;;;;;;3.75;1.80;;;;;;;;;;5044258;28;20045;-67
2023/09/21 10:10:20;;;;;;;2.67;1.52;;;;;;;;;;5051143;28;20496;-68
2023/09/21 10:12:49;;;;;;;4.00;1.40;;;;;;;;;;5048398;28;20044;-68
2023/09/21 10:15:16;;;;;;;3.60;1.58;;;;;;;;;;5047648;28;20071;-68
2023/09/21 10:17:46;;;;;;;2.72;1.40;;;;;;;;;;5049348;28;20417;-68
2023/09/21 10:20:15;;;;;;;4.68;1.10;;;;;;;;;;5046104;28;20064;-68
2023/09/21 10:22:44;;;;;;;4.53;1.42;;;;;;;;;;5042277;28;20460;-68
2023/09/21 10:25:13;;;;;;;2.42;1.73;;;;;;;;;;5041436;28;20041;-68
2023/09/21 10:27:46;;;;;;;2.20;1.42;;;;;;;;;;5047709;28;20465;-68
2023/09/21 10:30:15;;;;;;;2.83;1.60;;;;;;;;;;5048513;28;20053;-67
2023/09/21 10:32:44;;;;;;;2.35;1.33;;;;;;;;;;5040115;28;20045;-67
2023/09/21 10:35:14;;;;;;;3.47;1.60;;;;;;;;;;5048720;28;20057;-68
2023/09/21 10:37:40;;;;;;;4.63;1.60;;;;;;;;;;5046658;28;20421;-68
2023/09/21 10:40:08;;;;;;;3.55;1.42;;;;;;;;;;5041518;28;20056;-68
2023/09/21 10:42:37;;;;;;;2.85;1.50;;;;;;;;;;5043114;28;20057;-67
2023/09/21 10:45:07;;;;;;;2.92;1.20;;;;;;;;;;5049094;28;20045;-68
2023/09/21 10:47:40;;;;;;;2.75;1.40;;;;;;;;;;5044679;28;20116;-68
2023/09/21 10:50:11;;;;;;;4.00;1.88;;;;;;;;;;5041416;28;20409;-68
2023/09/21 10:52:40;;;;;;;6.97;1.55;;;;;;;;;;5048535;28;20045;-68
2023/09/21 10:55:08;;;;;;;3.80;1.30;;;;;;;;;;5049377;28;20139;-67
2023/09/21 10:57:34;;;;;;;3.38;1.92;;;;;;;;;;5042647;28;20060;-68
2023/09/21 11:00:04;;;;;;;2.63;1.75;;;;;;;;;;5042029;28;20380;-67
2023/09/21 11:02:32;;;;;;;4.03;1.85;;;;;;;;;;5045109;28;20049;-67
2023/09/21 11:05:00;;;;;;;4.43;1.73;;;;;;;;;;5041230;28;20492;-67
2023/09/21 11:07:29;;;;;;;4.15;1.88;;;;;;;;;;5042205;28;20087;-68
2023/09/21 11:09:56;;;;;;;4.28;1.83;;;;;;;;;;5045758;28;20132;-68
2023/09/21 11:12:23;;;;;;;3.55;1.70;;;;;;;;;;5049869;28;20098;-68
2023/09/21 11:14:50;;;;;;;2.67;1.80;;;;;;;;;;5043688;28;20138;-68
2023/09/21 11:17:17;;;;;;;3.75;1.90;;;;;;;;;;5045899;28;20328;-68
2023/09/21 11:19:45;;;;;;;4.03;1.70;;;;;;;;;;5045570;28;20045;-68
2023/09/21 11:22:14;;;;;;;5.88;1.60;;;;;;;;;;5048129;28;20072;-66
2023/09/21 11:24:43;;;;;;;1.77;1.50;;;;;;;;;;5042705;28;20053;-67
2023/09/21 11:27:11;;;;;;;4.18;2.03;;;;;;;;;;5049531;28;20052;-66
2023/09/21 11:29:40;;;;;;;6.90;1.60;;;;;;;;;;5049998;28;20393;-67
2023/09/21 11:32:08;;;;;;;3.05;1.45;;;;;;;;;;5049436;28;20412;-67
2023/09/21 11:34:40;;;;;;;2.22;1.58;;;;;;;;;;5045663;28;20048;-67
2023/09/21 11:37:08;;;;;;;3.58;1.98;;;;;;;;;;5046282;28;20120;-67
2023/09/21 11:39:37;;;;;;;2.47;1.40;;;;;;;;;;5043039;28;20115;-66
2023/09/21 11:42:07;;;;;;;3.60;1.63;;;;;;;;;;5045905;28;20052;-67
2023/09/21 11:44:35;;;;;;;4.57;2.17;;;;;;;;;;5037861;28;20088;-67
2023/09/21 11:47:02;;;;;;;4.55;1.95;;;;;;;;;;5047870;28;20051;-67
2023/09/21 11:49:40;;;;;;;2.80;1.38;;;;;;;;;;5040445;28;20068;-66
2023/09/21 11:52:07;;;;;;;2.20;1.52;;;;;;;;;;5045456;28;20055;-67
2023/09/21 11:54:35;;;;;;;3.85;1.50;;;;;;;;;;5047424;28;20508;-67
2023/09/21 11:57:04;;;;;;;3.08;1.45;;;;;;;;;;5046022;28;20048;-67
2023/09/21 11:59:36;;;;;;;2.00;1.40;;;;;;;;;;5043915;28;20041;-67
2023/09/21 12:02:09;;;;;;;3.22;1.17;;;;;;;;;;5046396;28;20056;-67
2023/09/21 12:04:37;;;;;;;3.85;1.52;;;;;;;;;;5045342;28;20432;-67
2023/09/21 12:07:04;;;;;;;2.40;1.20;;;;;;;;;;5051173;28;20519;-67
2023/09/21 12:09:30;;;;;;;2.60;1.10;;;;;;;;;;5048233;28;20464;-67
2023/09/21 12:11:58;;;;;;;2.33;1.20;;;;;;;;;;5051268;28;20067;-67
2023/09/21 12:14:24;;;;;;;2.13;1.20;;;;;;;;;;5047810;28;20057;-67
2023/09/21 12:16:53;;;;;;;2.72;1.30;;;;;;;;;;5044852;28;20049;-67
2023/09/21 12:19:20;;;;;;;2.22;1.45;;;;;;;;;;5050303;28;20056;-69
2023/09/21 12:21:48;;;;;;;2.65;1.30;;;;;;;;;;5046932;28;20053;-67
2023/09/21 12:24:15;;;;;;;3.83;1.45;;;;;;;;;;5044171;28;20056;-67
2023/09/21 12:26:42;;;;;;;3.58;1.58;;;;;;;;;;5046593;28;20049;-67
2023/09/21 12:29:09;;;;;;;2.40;1.27;;;;;;;;;;5051184;28;20496;-67
2023/09/21 12:31:37;;;;;;;2.90;1.30;;;;;;;;;;5042852;28;20051;-67
2023/09/21 12:34:05;;;;;;;4.53;1.45;;;;;;;;;;5047946;28;20144;-67
2023/09/21 12:36:31;;;;;;;2.72;1.30;;;;;;;;;;5044508;28;20057;-67
2023/09/21 12:39:00;;;;;;;3.03;1.42;;;;;;;;;;5045089;28;20045;-67
2023/09/21 12:41:29;;;;;;;2.90;1.02;;;;;;;;;;5039665;28;20517;-67
2023/09/21 12:43:56;;;;;;;2.80;1.13;;;;;;;;;;5050338;28;20041;-67
2023/09/21 12:46:24;;;;;;;0.80;0.73;;;;;;;;;;5049461;28;20063;-67
2023/09/21 12:48:52;;;;;;;2.70;0.90;;;;;;;;;;5047122;28;20045;-66
2023/09/21 12:51:20;;;;;;;3.20;0.90;;;;;;;;;;5044413;28;20238;-67
2023/09/21 12:53:46;;;;;;;2.20;0.82;;;;;;;;;;5043844;28;20075;-67
2023/09/21 12:56:14;;;;;;;2.22;1.00;;;;;;;;;;5045229;28;20051;-67
2023/09/21 12:58:40;;;;;;;1.52;0.73;;;;;;;;;;5044402;28;20540;-67
2023/09/21 13:01:07;;;;;;;1.95;0.80;;;;;;;;;;5047993;28;20045;-66
2023/09/21 13:03:34;;;;;;;2.33;0.90;;;;;;;;;;5044801;28;20059;-67
2023/09/21 13:06:01;;;;;;;1.08;0.80;;;;;;;;;;5047930;28;20515;-67
2023/09/21 13:08:29;;;;;;;2.35;0.90;;;;;;;;;;5044273;28;20078;-67
2023/09/21 13:10:56;;;;;;;3.00;1.00;;;;;;;;;;5044319;28;20512;-67
2023/09/21 13:13:23;;;;;;;1.50;0.90;;;;;;;;;;5043745;28;20048;-67
2023/09/21 13:15:50;;;;;;;2.72;0.90;;;;;;;;;;5040434;28;20122;-66
2023/09/21 13:18:17;;;;;;;3.83;0.90;;;;;;;;;;5050283;28;20049;-67
2023/09/21 13:20:43;;;;;;;3.47;1.10;;;;;;;;;;5049241;28;20519;-67
2023/09/21 13:23:10;;;;;;;2.05;0.85;;;;;;;;;;5046146;28;20049;-67
2023/09/21 13:25:38;;;;;;;1.60;0.90;;;;;;;;;;5044971;28;20049;-67
2023/09/21 13:28:05;;;;;;;1.80;0.85;;;;;;;;;;5043620;28;20420;-67
2023/09/21 13:30:32;;;;;;;1.40;0.80;;;;;;;;;;5047640;28;20056;-67
2023/09/21 13:32:59;;;;;;;2.00;1.10;;;;;;;;;;5044905;28;20048;-67
2023/09/21 13:35:25;;;;;;;2.13;0.80;;;;;;;;;;5043420;28;20053;-67
2023/09/21 13:37:52;;;;;;;3.70;1.02;;;;;;;;;;5045387;28;20080;-67
2023/09/21 13:40:18;;;;;;;0.85;0.75;;;;;;;;;;5042615;28;20517;-67
2023/09/21 13:42:46;;;;;;;4.75;1.05;;;;;;;;;;5048439;28;20067;-67
2023/09/21 13:45:13;;;;;;;1.45;0.85;;;;;;;;;;5050287;28;20046;-67
2023/09/21 13:47:40;;;;;;;3.95;1.23;;;;;;;;;;5049198;28;20063;-67
2023/09/21 13:50:07;;;;;;;1.15;0.90;;;;;;;;;;5045923;28;20254;-67
2023/09/21 13:52:36;;;;;;;2.33;0.70;;;;;;;;;;5044980;28;20526;-67
2023/09/21 13:55:02;;;;;;;2.38;0.93;;;;;;;;;;5048452;28;20136;-67
2023/09/21 13:57:29;;;;;;;1.60;0.85;;;;;;;;;;5040309;28;20051;-67
2023/09/21 13:59:58;;;;;;;2.95;0.90;;;;;;;;;;5047504;28;20045;-67
2023/09/21 14:02:24;;;;;;;4.35;1.10;;;;;;;;;;5045737;28;20489;-67
2023/09/21 14:04:51;;;;;;;1.55;0.80;;;;;;;;;;5045241;28;20049;-67
2023/09/21 14:07:18;;;;;;;2.22;0.98;;;;;;;;;;5050768;28;20125;-68
2023/09/21 14:09:44;;;;;;;2.92;0.68;;;;;;;;;;5053773;28;20052;-66
2023/09/21 14:12:11;;;;;;;1.27;0.70;;;;;;;;;;5047135;28;20104;-67
2023/09/21 14:14:37;;;;;;;2.78;0.68;;;;;;;;;;5049885;28;20040;-68
2023/09/21 14:17:05;;;;;;;3.15;0.70;;;;;;;;;;5051365;28;20049;-67
2023/09/21 14:19:32;;;;;;;2.25;0.90;;;;;;;;;;5050350;28;20049;-67
2023/09/21 14:21:59;;;;;;;1.98;0.68;;;;;;;;;;5044477;28;20045;-67
2023/09/21 14:24:25;;;;;;;1.58;0.80;;;;;;;;;;5049831;28;20045;-67
2023/09/21 14:26:52;;;;;;;3.17;1.10;;;;;;;;;;5049782;28;20740;-68
2023/09/21 14:29:18;;;;;;;2.08;0.80;;;;;;;;;;5050053;28;20046;-67
2023/09/21 14:31:45;;;;;;;4.30;0.90;;;;;;;;;;5047936;28;20054;-67
2023/09/21 14:34:13;;;;;;;2.15;0.93;;;;;;;;;;5047296;28;20057;-67
2023/09/21 14:36:40;;;;;;;3.53;0.88;;;;;;;;;;5044898;28;20059;-67
2023/09/21 14:39:06;;;;;;;2.65;0.85;;;;;;;;;;5049817;28;20045;-67
2023/09/21 14:41:33;;;;;;;2.35;1.20;;;;;;;;;;5049804;28;20041;-67
2023/09/21 14:44:00;;;;;;;2.28;1.33;;;;;;;;;;5051422;28;20067;-67
2023/09/21 14:46:26;;;;;;;2.78;0.88;;;;;;;;;;5047273;28;20056;-67